createdAt,value
2017-10-19T00:01:21.423Z,28.47
2017-10-19T00:03:49.307Z,28.90
2017-10-19T00:06:16.823Z,27.60
2017-10-19T00:08:44.367Z,27.70
2017-10-19T00:11:11.944Z,25.90
2017-10-19T00:13:39.541Z,28.03
2017-10-19T00:16:07.047Z,28.10
2017-10-19T00:18:34.603Z,25.13
2017-10-19T00:21:02.111Z,23.87
2017-10-19T00:23:29.659Z,26.57
2017-10-19T00:25:57.611Z,25.80
2017-10-19T00:28:25.887Z,26.80
2017-10-19T00:30:54.270Z,36.40
2017-10-19T00:33:22.175Z,33.07
2017-10-19T00:35:49.670Z,32.50
2017-10-19T00:38:17.176Z,41.60
2017-10-19T00:40:44.999Z,36.50
2017-10-19T00:43:12.693Z,32.47
2017-10-19T00:45:40.218Z,34.67
2017-10-19T00:48:08.115Z,31.47
2017-10-19T00:50:35.640Z,33.07
2017-10-19T00:53:03.169Z,31.37
2017-10-19T00:55:31.423Z,33.27
2017-10-19T00:57:58.940Z,34.23
2017-10-19T01:00:26.470Z,28.67
2017-10-19T01:02:54.255Z,29.00
2017-10-19T01:05:21.763Z,29.87
2017-10-19T01:07:49.311Z,33.50
2017-10-19T01:10:16.867Z,31.73
2017-10-19T01:12:44.384Z,31.07
2017-10-19T01:15:11.891Z,30.00
2017-10-19T01:17:40.206Z,28.80
2017-10-19T01:20:07.724Z,31.20
2017-10-19T01:22:35.244Z,28.30
2017-10-19T01:25:03.123Z,23.23
2017-10-19T01:27:30.784Z,25.70
2017-10-19T01:29:58.295Z,24.50
2017-10-19T01:32:25.856Z,22.53
2017-10-19T01:34:53.379Z,20.30
2017-10-19T01:37:21.649Z,21.07
2017-10-19T01:39:49.710Z,19.07
2017-10-19T01:42:17.211Z,21.53
2017-10-19T01:44:44.748Z,19.27
2017-10-19T01:47:12.330Z,21.83
2017-10-19T01:49:51.451Z,19.60
2017-10-19T01:52:19.775Z,22.03
2017-10-19T01:54:47.288Z,23.03
2017-10-19T01:57:14.815Z,22.00
2017-10-19T01:59:42.383Z,21.10
2017-10-19T02:02:09.892Z,21.70
2017-10-19T02:04:37.903Z,21.40
2017-10-19T02:07:05.670Z,22.07
2017-10-19T02:09:33.414Z,21.13
2017-10-19T02:12:00.952Z,23.60
2017-10-19T02:14:28.509Z,21.30
2017-10-19T02:16:56.023Z,22.43
2017-10-19T02:19:23.593Z,24.70
2017-10-19T02:21:51.936Z,24.03
2017-10-19T02:24:19.434Z,23.40
2017-10-19T02:26:46.946Z,23.53
2017-10-19T02:29:14.527Z,22.07
2017-10-19T02:31:42.404Z,22.70
2017-10-19T02:34:10.059Z,24.50
2017-10-19T02:36:38.423Z,22.07
2017-10-19T02:39:05.929Z,21.30
2017-10-19T02:41:33.583Z,20.00
2017-10-19T02:44:01.570Z,19.93
2017-10-19T02:46:29.084Z,21.80
2017-10-19T02:48:56.586Z,23.27
2017-10-19T02:51:24.173Z,21.50
2017-10-19T02:53:51.688Z,23.17
2017-10-19T02:56:19.950Z,23.03
2017-10-19T02:58:47.496Z,22.93
2017-10-19T03:01:15.019Z,25.20
2017-10-19T03:03:42.532Z,26.27
2017-10-19T03:06:10.855Z,25.87
2017-10-19T03:08:38.395Z,25.10
2017-10-19T03:11:05.902Z,26.10
2017-10-19T03:13:33.757Z,26.43
2017-10-19T03:16:01.262Z,28.03
2017-10-19T03:18:29.539Z,26.17
2017-10-19T03:20:58.123Z,25.77
2017-10-19T03:23:25.639Z,31.00
2017-10-19T03:25:53.860Z,28.37
2017-10-19T03:28:21.661Z,28.00
2017-10-19T03:30:49.184Z,31.40
2017-10-19T03:33:16.711Z,32.50
2017-10-19T03:35:44.548Z,28.63
2017-10-19T03:38:12.118Z,31.43
2017-10-19T03:40:39.645Z,30.57
2017-10-19T03:43:07.204Z,31.20
2017-10-19T03:45:34.736Z,28.47
2017-10-19T03:48:02.308Z,29.30
2017-10-19T03:50:30.281Z,28.43
2017-10-19T03:52:57.810Z,31.10
2017-10-19T03:55:25.818Z,28.30
2017-10-19T03:57:53.484Z,29.73
2017-10-19T04:00:21.025Z,27.60
2017-10-19T04:02:49.299Z,26.47
2017-10-19T04:05:17.855Z,27.87
2017-10-19T04:07:45.375Z,30.70
2017-10-19T04:10:13.209Z,28.70
2017-10-19T04:12:41.139Z,30.60
2017-10-19T04:15:08.672Z,27.60
2017-10-19T04:17:36.235Z,28.90
2017-10-19T04:20:04.808Z,30.17
2017-10-19T04:22:32.418Z,29.50
2017-10-19T04:24:59.959Z,32.80
2017-10-19T04:27:27.511Z,30.37
2017-10-19T04:29:55.023Z,26.67
2017-10-19T04:32:23.322Z,25.10
2017-10-19T04:34:51.162Z,25.73
2017-10-19T04:37:19.438Z,24.30
2017-10-19T04:39:47.717Z,25.90
2017-10-19T04:42:16.226Z,27.40
2017-10-19T04:44:43.730Z,23.80
2017-10-19T04:47:11.230Z,25.20
2017-10-19T04:49:39.280Z,21.87
2017-10-19T04:52:06.816Z,26.17
2017-10-19T04:54:34.335Z,25.67
2017-10-19T04:57:02.127Z,25.40
2017-10-19T04:59:29.653Z,27.97
2017-10-19T05:01:57.160Z,26.63
2017-10-19T05:04:24.709Z,26.47
2017-10-19T05:06:52.207Z,25.87
2017-10-19T05:09:20.478Z,24.20
2017-10-19T05:11:48.867Z,24.20
2017-10-19T05:14:16.415Z,27.73
2017-10-19T05:16:44.707Z,29.30
2017-10-19T05:19:12.272Z,32.70
2017-10-19T05:21:40.766Z,34.40
2017-10-19T05:24:09.326Z,29.20
2017-10-19T05:26:37.322Z,30.80
2017-10-19T05:29:04.977Z,31.13
2017-10-19T05:31:32.777Z,39.77
2017-10-19T05:34:00.291Z,36.00
2017-10-19T05:36:27.800Z,39.30
2017-10-19T05:38:55.647Z,35.33
2017-10-19T05:41:23.156Z,28.53
2017-10-19T05:43:51.475Z,33.10
2017-10-19T05:46:19.285Z,30.30
2017-10-19T05:48:46.799Z,26.40
2017-10-19T05:51:14.311Z,26.93
2017-10-19T05:53:41.939Z,26.40
2017-10-19T05:56:09.555Z,26.50
2017-10-19T05:58:37.099Z,24.83
2017-10-19T06:01:04.916Z,25.67
2017-10-19T06:03:32.491Z,23.93
2017-10-19T06:06:00.098Z,21.23
2017-10-19T06:08:27.896Z,22.17
2017-10-19T06:10:55.488Z,21.90
2017-10-19T06:13:23.486Z,25.10
2017-10-19T06:15:51.662Z,23.57
2017-10-19T06:18:19.404Z,21.33
2017-10-19T06:20:47.358Z,18.10
2017-10-19T06:23:15.398Z,17.80
2017-10-19T06:25:44.209Z,16.80
2017-10-19T06:28:11.840Z,15.93
2017-10-19T06:30:39.435Z,15.97
2017-10-19T06:33:07.363Z,16.87
2017-10-19T06:35:34.923Z,16.17
2017-10-19T06:38:02.707Z,18.00
2017-10-19T06:40:30.518Z,16.43
2017-10-19T06:42:58.368Z,16.30
2017-10-19T06:45:25.957Z,16.27
2017-10-19T06:47:53.526Z,16.23
2017-10-19T06:50:22.564Z,15.63
2017-10-19T06:52:50.532Z,16.60
2017-10-19T06:55:18.335Z,17.13
2017-10-19T06:57:45.939Z,14.80
2017-10-19T07:00:13.484Z,15.03
2017-10-19T07:02:41.430Z,13.10
2017-10-19T07:05:09.710Z,14.20
2017-10-19T07:07:37.340Z,13.30
2017-10-19T07:10:05.204Z,14.77
2017-10-19T07:12:32.771Z,15.67
2017-10-19T07:15:00.406Z,15.40
2017-10-19T07:17:28.357Z,14.47
2017-10-19T07:19:55.916Z,13.60
2017-10-19T07:22:23.638Z,13.43
2017-10-19T07:24:52.151Z,14.50
2017-10-19T07:27:19.705Z,15.33
2017-10-19T07:29:47.326Z,15.60
2017-10-19T07:32:15.333Z,14.87
2017-10-19T07:34:43.989Z,15.53
2017-10-19T07:37:11.595Z,15.07
2017-10-19T07:39:39.324Z,15.93
2017-10-19T07:42:07.070Z,14.77
2017-10-19T07:44:34.775Z,16.63
2017-10-19T07:47:03.198Z,15.23
2017-10-19T07:49:30.862Z,14.93
2017-10-19T07:51:58.384Z,14.77
2017-10-19T07:54:26.342Z,17.00
2017-10-19T07:56:54.627Z,14.53
2017-10-19T07:59:22.375Z,14.57
2017-10-19T08:01:49.905Z,14.50
2017-10-19T08:04:17.410Z,15.00
2017-10-19T08:06:45.736Z,13.50
2017-10-19T08:09:14.543Z,14.67
2017-10-19T08:11:42.139Z,16.30
2017-10-19T08:14:09.693Z,15.07
2017-10-19T08:16:38.306Z,17.03
2017-10-19T08:19:05.815Z,17.57
2017-10-19T08:21:33.331Z,15.80
2017-10-19T08:24:01.354Z,17.80
2017-10-19T08:26:30.011Z,15.27
2017-10-19T08:28:57.672Z,15.20
2017-10-19T08:31:25.627Z,17.00
2017-10-19T08:33:53.235Z,16.97
2017-10-19T08:36:20.805Z,17.40
2017-10-19T08:38:48.328Z,16.13
2017-10-19T08:41:15.859Z,16.63
2017-10-19T08:43:43.447Z,16.70
2017-10-19T08:46:11.015Z,15.77
2017-10-19T08:48:38.535Z,15.50
2017-10-19T08:51:06.432Z,16.80
2017-10-19T08:53:34.172Z,16.53
2017-10-19T08:56:01.696Z,15.20
2017-10-19T08:58:29.454Z,17.03
2017-10-19T09:00:57.784Z,15.17
2017-10-19T09:03:25.403Z,14.80
2017-10-19T09:05:52.969Z,16.97
2017-10-19T09:08:20.570Z,17.03
2017-10-19T09:10:48.079Z,16.43
2017-10-19T09:13:15.614Z,16.63
2017-10-19T09:15:43.568Z,16.27
2017-10-19T09:18:11.111Z,17.00
2017-10-19T09:20:38.799Z,16.50
2017-10-19T09:23:07.329Z,15.63
2017-10-19T09:25:34.836Z,15.63
2017-10-19T09:28:02.378Z,15.73
2017-10-19T09:30:32.911Z,16.43
2017-10-19T09:33:02.054Z,17.37
2017-10-19T09:35:31.975Z,16.87
2017-10-19T09:38:00.632Z,16.87
2017-10-19T09:40:29.297Z,16.13
2017-10-19T09:42:57.673Z,15.87
2017-10-19T10:02:11.020Z,15.43
2017-10-19T10:04:38.663Z,18.77
2017-10-19T10:07:06.591Z,17.00
2017-10-19T10:09:34.453Z,18.47
2017-10-19T10:12:03.396Z,17.80
2017-10-19T10:14:31.783Z,18.10
2017-10-19T10:17:00.620Z,19.50
2017-10-19T10:19:28.127Z,19.30
2017-10-19T10:21:56.130Z,17.63
2017-10-19T10:24:24.031Z,16.30
2017-10-19T10:26:51.559Z,17.20
2017-10-19T10:29:19.067Z,20.27
2017-10-19T10:31:47.630Z,17.50
2017-10-19T10:34:15.171Z,17.23
2017-10-19T10:36:42.676Z,18.30
2017-10-19T10:39:10.315Z,17.30
2017-10-19T10:41:38.632Z,18.27
2017-10-19T10:44:06.150Z,17.30
2017-10-19T10:46:34.163Z,18.03
2017-10-19T10:49:01.663Z,17.17
2017-10-19T10:51:29.171Z,19.10
2017-10-19T10:53:57.667Z,19.53
2017-10-19T10:56:25.568Z,17.20
2017-10-19T10:58:53.894Z,18.50
2017-10-19T11:01:21.615Z,17.30
2017-10-19T11:03:49.128Z,18.60
2017-10-19T11:06:16.634Z,18.83
2017-10-19T11:08:44.482Z,18.10
2017-10-19T11:11:11.995Z,19.33
2017-10-19T11:13:39.572Z,17.87
2017-10-19T11:16:07.396Z,17.93
2017-10-19T11:18:34.940Z,18.13
2017-10-19T11:21:02.443Z,18.70
2017-10-19T11:23:30.394Z,16.70
2017-10-19T11:25:57.905Z,16.53
2017-10-19T11:28:25.420Z,16.60
2017-10-19T11:30:54.167Z,17.30
2017-10-19T11:33:22.166Z,16.87
2017-10-19T11:35:50.900Z,16.93
2017-10-19T11:38:18.435Z,18.30
2017-10-19T11:40:45.988Z,18.07
2017-10-19T11:43:13.547Z,19.73
2017-10-19T11:45:41.067Z,17.30
2017-10-19T11:48:08.568Z,18.20
2017-10-19T11:50:36.828Z,17.20
2017-10-19T11:53:05.103Z,18.53
2017-10-19T11:55:33.435Z,17.50
2017-10-19T11:58:01.031Z,16.43
2017-10-19T12:00:29.311Z,15.93
2017-10-19T12:02:56.883Z,16.00
2017-10-19T12:05:24.652Z,16.97
2017-10-19T12:07:52.965Z,17.67
2017-10-19T12:10:20.654Z,17.60
2017-10-19T12:12:48.380Z,17.07
2017-10-19T12:15:15.987Z,17.40
2017-10-19T12:17:43.499Z,18.23
2017-10-19T12:20:11.352Z,19.40
2017-10-19T12:22:38.866Z,18.70
2017-10-19T12:25:06.372Z,20.30
2017-10-19T12:27:33.919Z,18.47
2017-10-19T12:30:01.465Z,17.77
2017-10-19T12:32:29.028Z,18.80
2017-10-19T12:34:56.983Z,19.40
2017-10-19T12:37:24.544Z,19.47
2017-10-19T12:39:52.239Z,17.70
2017-10-19T12:42:20.147Z,18.63
2017-10-19T12:44:47.663Z,19.63
2017-10-19T12:47:15.173Z,19.07
2017-10-19T12:49:42.791Z,16.50
2017-10-19T12:52:10.331Z,16.83
2017-10-19T12:54:37.943Z,16.37
2017-10-19T12:57:05.507Z,18.03
2017-10-19T12:59:33.382Z,17.23
2017-10-19T13:02:01.767Z,14.60
2017-10-19T13:04:30.547Z,15.50
2017-10-19T13:06:58.047Z,14.00
2017-10-19T13:09:26.344Z,15.50
2017-10-19T13:11:54.191Z,14.53
2017-10-19T13:14:22.485Z,14.10
2017-10-19T13:16:50.024Z,13.27
2017-10-19T13:19:17.634Z,12.63
2017-10-19T13:21:45.140Z,11.97
2017-10-19T13:24:12.649Z,12.60
2017-10-19T13:26:40.339Z,12.10
2017-10-19T13:29:08.255Z,10.30
2017-10-19T13:31:35.785Z,10.80
2017-10-19T13:34:03.328Z,9.80
2017-10-19T13:36:30.906Z,11.30
2017-10-19T13:38:58.620Z,10.50
2017-10-19T13:41:26.192Z,10.53
2017-10-19T13:43:54.827Z,10.13
2017-10-19T13:46:22.341Z,9.97
2017-10-19T13:48:49.847Z,9.63
2017-10-19T13:51:17.510Z,9.23
2017-10-19T13:53:45.020Z,9.73
2017-10-19T13:56:12.524Z,9.17
2017-10-19T13:58:41.803Z,9.87
2017-10-19T14:01:09.369Z,10.50
2017-10-19T14:03:36.915Z,11.30
2017-10-19T14:06:04.699Z,12.00
2017-10-19T14:08:32.224Z,11.03
2017-10-19T14:10:59.730Z,11.27
2017-10-19T14:13:27.302Z,10.40
2017-10-19T14:15:54.943Z,10.87
2017-10-19T14:18:22.447Z,11.63
2017-10-19T14:20:50.050Z,9.40
2017-10-19T14:23:17.843Z,10.90
2017-10-19T14:25:45.587Z,10.50
2017-10-19T14:28:13.248Z,11.27
2017-10-19T14:30:40.864Z,11.30
2017-10-19T14:33:08.407Z,9.37
2017-10-19T14:35:36.991Z,8.97
2017-10-19T14:38:04.486Z,7.90
2017-10-19T14:40:32.058Z,8.57
2017-10-19T14:42:59.595Z,9.20
2017-10-19T14:45:27.099Z,10.63
2017-10-19T14:47:54.655Z,9.53
2017-10-19T14:50:24.156Z,11.40
2017-10-19T14:52:52.444Z,9.93
2017-10-19T14:55:19.952Z,9.57
2017-10-19T14:57:47.615Z,8.73
2017-10-19T15:00:15.128Z,9.30
2017-10-19T15:02:42.640Z,9.33
2017-10-19T15:05:11.376Z,8.93
2017-10-19T15:07:38.878Z,9.30
2017-10-19T15:10:06.391Z,10.00
2017-10-19T15:12:33.946Z,9.87
2017-10-19T15:15:01.468Z,10.67
2017-10-19T15:17:28.983Z,9.40
2017-10-19T15:19:56.825Z,9.30
2017-10-19T15:22:24.523Z,8.70
2017-10-19T15:24:52.106Z,10.13
2017-10-19T15:27:19.667Z,9.30
2017-10-19T15:29:47.192Z,8.87
2017-10-19T15:32:14.771Z,8.20
2017-10-19T15:34:43.328Z,8.40
2017-10-19T15:37:10.836Z,7.93
2017-10-19T15:39:38.442Z,10.70
2017-10-19T15:42:06.496Z,9.00
2017-10-19T15:44:35.275Z,50.30
2017-10-19T15:47:02.784Z,8.77
2017-10-19T15:49:31.484Z,9.37
2017-10-19T15:51:59.021Z,10.83
2017-10-19T15:54:26.531Z,27.20
2017-10-19T15:56:54.503Z,20.47
2017-10-19T15:59:22.073Z,25.60
2017-10-19T16:01:49.653Z,30.20
2017-10-19T16:04:17.210Z,13.73
2017-10-19T16:06:44.936Z,28.37
2017-10-19T16:09:12.441Z,16.67
2017-10-19T16:11:40.236Z,17.00
2017-10-19T16:14:07.784Z,18.60
2017-10-19T16:16:35.299Z,34.03
2017-10-19T16:19:03.294Z,22.50
2017-10-19T16:21:30.948Z,15.97
2017-10-19T16:23:58.456Z,12.50
2017-10-19T16:26:26.109Z,12.77
2017-10-19T16:28:53.631Z,22.40
2017-10-19T16:31:21.438Z,11.70
2017-10-19T16:33:49.396Z,15.50
2017-10-19T16:36:17.188Z,12.60
2017-10-19T16:38:44.723Z,10.30
2017-10-19T16:41:12.523Z,12.13
2017-10-19T16:43:40.027Z,12.77
2017-10-19T16:46:08.070Z,16.17
2017-10-19T16:48:35.879Z,12.17
2017-10-19T16:51:03.499Z,12.07
2017-10-19T16:53:31.798Z,14.27
2017-10-19T16:55:59.627Z,12.90
2017-10-19T16:58:27.222Z,10.80
2017-10-19T17:00:55.501Z,13.10
2017-10-19T17:03:23.551Z,12.43
2017-10-19T17:05:51.260Z,11.97
2017-10-19T17:08:18.965Z,11.20
2017-10-19T17:10:47.340Z,10.60
2017-10-19T17:13:15.267Z,11.50
2017-10-19T17:15:42.792Z,15.97
2017-10-19T17:18:11.067Z,13.20
2017-10-19T17:20:39.770Z,12.57
2017-10-19T17:23:07.283Z,13.40
2017-10-19T17:25:34.858Z,15.80
2017-10-19T17:28:04.800Z,13.47
2017-10-19T17:30:32.311Z,13.90
2017-10-19T17:32:59.327Z,13.40
2017-10-19T17:35:27.279Z,14.17
2017-10-19T17:37:54.841Z,15.57
2017-10-19T17:40:22.456Z,18.13
2017-10-19T17:42:50.084Z,22.20
2017-10-19T17:45:17.656Z,21.20
2017-10-19T17:47:45.156Z,18.70
2017-10-19T17:50:12.747Z,21.00
2017-10-19T17:52:40.270Z,20.57
2017-10-19T17:55:07.784Z,17.30
2017-10-19T17:57:35.579Z,19.00
2017-10-19T18:00:03.112Z,18.30
2017-10-19T18:02:30.652Z,18.17
2017-10-19T18:04:58.392Z,17.90
2017-10-19T18:07:26.035Z,16.93
2017-10-19T18:09:53.699Z,13.80
2017-10-19T18:12:21.294Z,15.70
2017-10-19T18:14:49.000Z,15.33
2017-10-19T18:17:16.512Z,15.00
2017-10-19T18:19:44.759Z,16.13
2017-10-19T18:22:12.273Z,13.60
2017-10-19T18:24:40.015Z,14.87
2017-10-19T18:27:07.955Z,17.87
2017-10-19T18:29:35.807Z,13.37
2017-10-19T18:32:03.437Z,14.73
2017-10-19T18:34:31.015Z,14.03
2017-10-19T18:36:58.676Z,14.27
2017-10-19T18:39:27.352Z,20.20
2017-10-19T18:41:54.894Z,21.10
2017-10-19T18:44:22.415Z,27.03
2017-10-19T18:46:50.080Z,25.70
2017-10-19T18:49:17.656Z,11.97
2017-10-19T18:51:45.216Z,16.67
2017-10-19T18:54:12.776Z,19.03
2017-10-19T18:56:40.347Z,13.60
2017-10-19T18:59:07.935Z,13.27
2017-10-19T19:01:35.439Z,14.83
2017-10-19T19:04:03.115Z,21.70
2017-10-19T19:06:30.956Z,14.83
2017-10-19T19:08:58.474Z,17.17
2017-10-19T19:11:26.392Z,14.70
2017-10-19T19:13:54.667Z,22.83
2017-10-19T19:16:22.942Z,15.17
2017-10-19T19:18:51.921Z,14.63
2017-10-19T19:21:19.420Z,14.47
2017-10-19T19:23:46.932Z,15.10
2017-10-19T19:26:14.487Z,15.70
2017-10-19T19:28:42.000Z,16.10
2017-10-19T19:31:09.540Z,15.13
2017-10-19T19:33:37.925Z,16.27
2017-10-19T19:36:05.762Z,16.30
2017-10-19T19:38:33.349Z,16.30
2017-10-19T19:41:01.179Z,16.80
2017-10-19T19:43:28.684Z,15.63
2017-10-19T19:45:56.388Z,15.97
2017-10-19T19:48:24.046Z,16.50
2017-10-19T19:50:51.568Z,16.37
2017-10-19T19:53:19.071Z,16.93
2017-10-19T19:55:47.012Z,17.93
2017-10-19T19:58:14.520Z,17.07
2017-10-19T20:00:42.031Z,17.30
2017-10-19T20:03:09.978Z,17.13
2017-10-19T20:05:37.758Z,17.20
2017-10-19T20:08:05.288Z,17.23
2017-10-19T20:10:33.587Z,15.57
2017-10-19T20:13:01.108Z,15.63
2017-10-19T20:15:28.740Z,17.03
2017-10-19T20:17:56.792Z,16.47
2017-10-19T20:20:24.413Z,16.03
2017-10-19T20:22:52.776Z,16.80
2017-10-19T20:25:20.328Z,17.60
2017-10-19T20:27:48.085Z,17.93
2017-10-19T20:30:15.599Z,19.37
2017-10-19T20:32:43.244Z,17.60
2017-10-19T20:35:10.759Z,18.47
2017-10-19T20:37:38.303Z,16.60
2017-10-19T20:40:06.192Z,17.00
2017-10-19T20:42:33.883Z,17.97
2017-10-19T20:45:01.423Z,16.93
2017-10-19T20:47:30.004Z,18.70
2017-10-19T20:49:57.847Z,17.70
2017-10-19T20:52:25.352Z,16.10
2017-10-19T20:54:52.982Z,17.60
2017-10-19T20:57:20.552Z,17.23
2017-10-19T20:59:48.344Z,19.00
2017-10-19T21:02:16.011Z,18.07
2017-10-19T21:04:43.631Z,20.17
2017-10-19T21:07:11.920Z,21.07
2017-10-19T21:09:39.486Z,19.40
2017-10-19T21:12:07.778Z,21.23
2017-10-19T21:14:36.052Z,21.97
2017-10-19T21:17:04.359Z,18.93
2017-10-19T21:19:32.058Z,21.90
2017-10-19T21:21:59.575Z,21.60
2017-10-19T21:24:27.243Z,22.13
2017-10-19T21:26:54.819Z,20.67
2017-10-19T21:29:22.415Z,17.40
2017-10-19T21:31:50.170Z,19.60
2017-10-19T21:34:17.844Z,20.50
2017-10-19T21:36:45.348Z,19.77
2017-10-19T21:39:13.030Z,20.47
2017-10-19T21:41:40.587Z,18.63
2017-10-19T21:44:08.284Z,20.67
2017-10-19T21:46:36.107Z,19.23
2017-10-19T21:49:04.126Z,19.43
2017-10-19T21:51:31.647Z,18.97
2017-10-19T21:53:59.166Z,23.23
2017-10-19T21:56:26.859Z,21.97
2017-10-19T21:58:54.380Z,23.97
2017-10-19T22:01:22.959Z,21.40
2017-10-19T22:03:51.216Z,24.63
2017-10-19T22:06:18.832Z,24.77
2017-10-19T22:08:46.372Z,23.50
2017-10-19T22:11:14.187Z,26.00
2017-10-19T22:13:41.769Z,24.10
2017-10-19T22:16:09.409Z,21.70
2017-10-19T22:18:37.022Z,21.50
2017-10-19T22:21:04.692Z,24.03
2017-10-19T22:23:32.212Z,21.83
2017-10-19T22:25:59.821Z,25.30
2017-10-19T22:28:27.340Z,24.40
2017-10-19T22:30:55.127Z,24.10
2017-10-19T22:33:22.796Z,27.03
2017-10-19T22:35:50.588Z,24.87
2017-10-19T22:38:18.303Z,26.50
2017-10-19T22:40:46.067Z,26.20
2017-10-19T22:43:14.628Z,25.90
2017-10-19T22:45:42.130Z,26.30
2017-10-19T22:48:10.004Z,24.80
2017-10-19T22:50:37.574Z,25.07
2017-10-19T22:53:05.220Z,26.63
2017-10-19T22:55:33.128Z,25.60
2017-10-19T22:58:00.639Z,27.93
2017-10-19T23:00:28.148Z,25.27
2017-10-19T23:02:56.347Z,24.93
2017-10-19T23:05:23.862Z,30.77
2017-10-19T23:07:51.372Z,27.63
2017-10-19T23:10:19.914Z,26.20
2017-10-19T23:12:47.464Z,29.70
2017-10-19T23:15:14.969Z,29.87
2017-10-19T23:17:42.862Z,29.00
2017-10-19T23:20:10.515Z,29.33
2017-10-19T23:22:38.939Z,26.60
2017-10-19T23:25:06.844Z,27.03
2017-10-19T23:27:34.351Z,31.17
2017-10-19T23:30:01.888Z,29.63
2017-10-19T23:32:29.719Z,28.20
2017-10-19T23:34:57.231Z,27.53
2017-10-19T23:37:25.489Z,29.10
2017-10-19T23:39:53.498Z,32.43
2017-10-19T23:42:20.999Z,30.30
2017-10-19T23:44:48.500Z,30.00
2017-10-19T23:47:16.306Z,32.23
2017-10-19T23:49:43.825Z,27.77
2017-10-19T23:52:11.342Z,27.40
2017-10-19T23:54:40.414Z,32.67
2017-10-19T23:57:07.943Z,30.00
2017-10-19T23:59:35.463Z,29.87
